Time;durP1;ratioP1;P1;durP2;ratioP2;P2;SDS_P1;SDS_P2;PMS_P1;PMS_P2;Temp;Humidity;BMP_temperature;BMP_pressure;BME280_temperature;BME280_humidity;BME280_pressure;Samples;Min_cycle;Max_cycle;Signal;HPM_P1;HPM_P2
2022/10/17 00:01:55;;;;;;;6.90;6.20;;;16.00;99.90;;;;;;5030315;28;20205;-36
2022/10/17 00:04:20;;;;;;;7.10;5.57;;;16.10;99.90;;;;;;5029746;28;20256;-37
2022/10/17 00:06:46;;;;;;;6.00;5.40;;;16.10;99.90;;;;;;5030288;28;20579;-36
2022/10/17 00:09:11;;;;;;;7.07;6.33;;;16.10;99.90;;;;;;5030304;28;20435;-36
2022/10/17 00:11:38;;;;;;;8.30;5.80;;;16.10;99.90;;;;;;5030079;28;20186;-36
2022/10/17 00:14:03;;;;;;;6.40;5.80;;;16.10;99.90;;;;;;5029449;28;20373;-37
2022/10/17 00:16:33;;;;;;;6.10;5.50;;;16.10;99.90;;;;;;5030138;28;20425;-36
2022/10/17 00:18:59;;;;;;;6.97;6.27;;;16.10;99.90;;;;;;5030109;28;20232;-37
2022/10/17 00:21:25;;;;;;;7.10;5.37;;;16.10;99.90;;;;;;5030327;28;20425;-36
2022/10/17 00:23:51;;;;;;;5.73;5.17;;;16.20;99.90;;;;;;5029441;28;20447;-36
2022/10/17 00:26:17;;;;;;;6.57;5.87;;;16.20;99.90;;;;;;5029839;28;20451;-36
2022/10/17 00:28:51;;;;;;;10.37;6.47;;;16.30;99.90;;;;;;5029544;28;20826;-36
2022/10/17 00:31:18;;;;;;;6.30;5.70;;;16.30;99.90;;;;;;5028498;28;20854;-36
2022/10/17 00:33:44;;;;;;;6.50;5.80;;;16.30;99.90;;;;;;5028834;28;20500;-36
2022/10/17 00:36:16;;;;;;;6.17;5.67;;;16.40;99.90;;;;;;5030101;28;20444;-36
2022/10/17 00:38:44;;;;;;;6.10;5.53;;;16.40;99.90;;;;;;5029560;28;20479;-37
2022/10/17 00:41:13;;;;;;;6.27;5.70;;;16.40;99.90;;;;;;5029402;28;20425;-37
2022/10/17 00:43:59;;;;;;;5.63;5.00;;;16.40;99.90;;;;;;5027708;28;20463;-37
2022/10/17 00:46:28;;;;;;;6.30;5.70;;;16.40;99.90;;;;;;5029753;28;20471;-37
2022/10/17 00:48:55;;;;;;;9.27;5.40;;;16.40;99.90;;;;;;5029318;28;20823;-36
2022/10/17 00:51:28;;;;;;;6.17;5.57;;;16.40;99.90;;;;;;5029427;28;20417;-36
2022/10/17 00:53:55;;;;;;;5.63;5.10;;;16.40;99.90;;;;;;5028328;28;20417;-36
2022/10/17 00:56:21;;;;;;;5.63;5.10;;;16.40;99.90;;;;;;5027448;28;20532;-37
2022/10/17 00:58:47;;;;;;;6.63;5.73;;;16.40;99.90;;;;;;5029072;28;20874;-36
2022/10/17 01:01:12;;;;;;;5.50;4.77;;;16.40;99.90;;;;;;5029420;28;20659;-37
2022/10/17 01:03:38;;;;;;;6.00;5.40;;;16.40;99.90;;;;;;5028414;28;20437;-36
2022/10/17 01:06:04;;;;;;;6.90;5.70;;;16.30;99.90;;;;;;5028747;28;20202;-36
2022/10/17 01:08:30;;;;;;;6.60;6.00;;;16.40;99.90;;;;;;5029117;28;20203;-36
2022/10/17 01:11:00;;;;;;;7.97;5.20;;;16.40;99.90;;;;;;5029052;28;20193;-37
2022/10/17 01:13:36;;;;;;;6.57;5.80;;;16.40;99.90;;;;;;5028478;28;20263;-36
2022/10/17 01:16:36;;;;;;;5.97;5.37;;;16.40;99.90;;;;;;5029377;28;20467;-36
2022/10/17 01:19:26;;;;;;;6.30;5.37;;;16.40;99.90;;;;;;5029091;28;20425;-36
2022/10/17 01:22:14;;;;;;;7.77;5.23;;;16.50;99.90;;;;;;5028890;28;20854;-36
2022/10/17 01:25:05;;;;;;;5.70;5.10;;;16.50;99.90;;;;;;5027865;28;20441;-36
2022/10/17 01:27:46;;;;;;;7.77;5.23;;;16.50;99.90;;;;;;5028749;28;20521;-36
2022/10/17 01:30:49;;;;;;;5.80;5.17;;;16.50;99.90;;;;;;5028775;28;20409;-36
2022/10/17 01:33:46;;;;;;;8.00;5.33;;;16.50;99.90;;;;;;5027850;28;20409;-36
2022/10/17 01:36:26;;;;;;;6.20;5.60;;;16.50;99.90;;;;;;5016027;28;20429;-36
2022/10/17 01:39:06;;;;;;;5.53;5.03;;;16.50;99.90;;;;;;5027651;28;20597;-36
2022/10/17 01:41:40;;;;;;;6.43;5.47;;;16.60;99.90;;;;;;5028127;28;20451;-36
2022/10/17 01:44:38;;;;;;;6.10;5.27;;;16.60;99.90;;;;;;5027863;28;20436;-36
2022/10/17 01:47:08;;;;;;;6.17;4.97;;;16.60;99.90;;;;;;5028380;28;20460;-36
2022/10/17 01:49:36;;;;;;;5.50;4.97;;;16.60;99.90;;;;;;5028512;28;20417;-37
2022/10/17 01:52:07;;;;;;;5.70;5.20;;;16.60;99.90;;;;;;5028068;28;20899;-36
2022/10/17 01:54:47;;;;;;;7.10;6.13;;;16.50;99.90;;;;;;5026637;28;20516;-37
2022/10/17 01:57:24;;;;;;;6.03;5.37;;;16.60;99.90;;;;;;5028189;28;20447;-37
2022/10/17 01:59:51;;;;;;;8.73;6.10;;;16.60;99.90;;;;;;5028557;28;20456;-37
2022/10/17 02:02:19;;;;;;;5.80;5.20;;;16.60;99.90;;;;;;5027918;28;20429;-36
2022/10/17 02:04:47;;;;;;;5.93;5.43;;;16.60;99.90;;;;;;5027659;28;20491;-36
2022/10/17 02:07:13;;;;;;;6.50;5.90;;;16.60;99.90;;;;;;5028217;28;20515;-36
2022/10/17 02:09:39;;;;;;;6.60;5.33;;;16.60;99.90;;;;;;5028072;28;20945;-36
2022/10/17 02:12:52;;;;;;;7.60;5.43;;;16.60;99.90;;;;;;5028299;28;20470;-36
2022/10/17 02:15:18;;;;;;;8.93;5.10;;;16.70;99.90;;;;;;5025357;28;20932;-37
2022/10/17 02:17:55;;;;;;;6.30;5.23;;;16.70;99.90;;;;;;5024750;28;20551;-36
2022/10/17 02:20:34;;;;;;;5.70;5.00;;;16.70;99.90;;;;;;5028171;28;20190;-36
2022/10/17 02:23:20;;;;;;;7.10;5.37;;;16.70;99.90;;;;;;5027480;28;21021;-36
2022/10/17 02:25:58;;;;;;;7.93;5.70;;;16.80;99.90;;;;;;5028222;28;20516;-36
2022/10/17 02:28:32;;;;;;;8.40;5.20;;;16.90;99.90;;;;;;5026939;28;20495;-36
2022/10/17 02:31:05;;;;;;;5.87;5.27;;;16.90;99.90;;;;;;5026588;28;20916;-37
2022/10/17 02:33:46;;;;;;;8.10;5.40;;;16.90;99.90;;;;;;5027097;28;20421;-36
2022/10/17 02:36:17;;;;;;;5.00;4.50;;;16.90;99.90;;;;;;5028030;28;20731;-36
2022/10/17 02:38:44;;;;;;;6.43;5.23;;;16.90;99.90;;;;;;5028074;28;20421;-37
2022/10/17 02:41:15;;;;;;;5.93;4.70;;;16.90;99.90;;;;;;5027976;28;20494;-36
2022/10/17 02:43:44;;;;;;;5.63;5.13;;;16.90;99.90;;;;;;5026114;28;20941;-36
2022/10/17 02:46:19;;;;;;;6.13;5.00;;;16.90;99.90;;;;;;5027782;28;20498;-37
2022/10/17 02:48:52;;;;;;;5.47;4.97;;;16.90;99.90;;;;;;5027895;28;20412;-36
2022/10/17 02:51:41;;;;;;;6.43;4.67;;;16.90;99.90;;;;;;5027896;28;20416;-37
2022/10/17 02:54:15;;;;;;;9.43;5.50;;;16.90;99.90;;;;;;5027193;28;20428;-36
2022/10/17 02:56:48;;;;;;;5.90;5.30;;;17.00;99.90;;;;;;5026067;28;21008;-36
2022/10/17 02:59:16;;;;;;;6.70;4.73;;;17.00;99.90;;;;;;5026534;28;20421;-37
2022/10/17 03:01:43;;;;;;;5.90;5.30;;;16.90;99.90;;;;;;5027842;28;20428;-36
2022/10/17 03:04:12;;;;;;;6.93;5.73;;;16.90;99.90;;;;;;5027326;28;20437;-37
2022/10/17 03:06:39;;;;;;;5.80;5.10;;;16.90;99.90;;;;;;5027959;28;20807;-36
2022/10/17 03:09:06;;;;;;;6.07;5.10;;;16.80;99.90;;;;;;5027607;28;20495;-37
2022/10/17 03:11:32;;;;;;;5.53;4.80;;;16.80;99.90;;;;;;5027792;28;20443;-37
2022/10/17 03:13:57;;;;;;;10.33;5.67;;;16.80;99.90;;;;;;5026096;28;20425;-36
2022/10/17 03:16:23;;;;;;;5.30;4.80;;;16.90;99.90;;;;;;5027622;28;20297;-36
2022/10/17 03:18:49;;;;;;;5.50;4.97;;;16.90;99.90;;;;;;5029782;28;20183;-36
2022/10/17 03:21:14;;;;;;;6.67;5.50;;;16.90;99.90;;;;;;5031165;28;20182;-36
2022/10/17 03:23:40;;;;;;;5.43;4.80;;;17.00;99.90;;;;;;5030228;28;20202;-36
2022/10/17 03:26:06;;;;;;;5.47;4.60;;;17.00;99.90;;;;;;5031561;28;20198;-36
2022/10/17 03:28:32;;;;;;;6.70;5.23;;;17.00;99.90;;;;;;5031119;28;20190;-36
2022/10/17 03:30:57;;;;;;;6.20;5.20;;;17.00;99.90;;;;;;5031420;28;20924;-36
2022/10/17 03:33:23;;;;;;;7.70;5.27;;;17.00;99.90;;;;;;5030099;28;20269;-36
2022/10/17 03:35:49;;;;;;;7.33;4.67;;;16.90;99.90;;;;;;5030789;28;20233;-36
2022/10/17 03:38:14;;;;;;;8.73;5.73;;;17.00;99.90;;;;;;5030574;28;20248;-36
2022/10/17 03:40:40;;;;;;;6.03;5.43;;;16.90;99.90;;;;;;5030804;28;20198;-36
2022/10/17 03:43:06;;;;;;;5.30;4.80;;;17.00;99.90;;;;;;5030010;28;20206;-36
2022/10/17 03:45:31;;;;;;;7.73;5.17;;;17.00;99.90;;;;;;5030668;28;20360;-36
2022/10/17 03:48:00;;;;;;;7.03;4.83;;;17.10;99.90;;;;;;5030643;28;20298;-36
2022/10/17 03:50:25;;;;;;;5.57;5.07;;;17.00;99.90;;;;;;5029125;28;20194;-37
2022/10/17 03:52:51;;;;;;;12.60;5.27;;;17.00;99.90;;;;;;5030157;28;20851;-36
2022/10/17 03:55:17;;;;;;;6.83;5.07;;;17.00;99.90;;;;;;5028966;28;20502;-37
2022/10/17 03:57:43;;;;;;;6.37;5.00;;;17.10;99.90;;;;;;5030834;28;20790;-37
2022/10/17 04:00:09;;;;;;;7.03;4.83;;;17.00;99.90;;;;;;5030215;28;20417;-37
2022/10/17 04:02:35;;;;;;;6.93;5.10;;;17.00;99.90;;;;;;5030767;28;20512;-37
2022/10/17 04:05:01;;;;;;;5.63;5.00;;;17.00;99.90;;;;;;5029596;28;20543;-36
2022/10/17 04:07:27;;;;;;;7.87;5.13;;;17.00;99.90;;;;;;5030162;28;20259;-36
2022/10/17 04:09:52;;;;;;;6.20;5.60;;;17.10;99.90;;;;;;5030085;28;20245;-36
2022/10/17 04:12:18;;;;;;;5.70;5.20;;;17.10;99.90;;;;;;5030217;28;20422;-36
2022/10/17 04:14:43;;;;;;;5.37;4.87;;;17.10;99.90;;;;;;5029667;28;20189;-37
2022/10/17 04:17:09;;;;;;;7.83;5.10;;;17.00;99.90;;;;;;5025558;28;20202;-37
2022/10/17 04:19:35;;;;;;;6.20;5.20;;;17.10;99.90;;;;;;5024735;28;20195;-37
2022/10/17 04:22:02;;;;;;;7.17;5.23;;;17.00;99.90;;;;;;5025624;28;20216;-38
2022/10/17 04:24:28;;;;;;;5.40;4.63;;;17.00;99.90;;;;;;5029351;28;20182;-36
2022/10/17 04:26:54;;;;;;;5.80;5.30;;;17.00;99.90;;;;;;5029734;28;20538;-36
2022/10/17 04:29:20;;;;;;;7.83;5.00;;;17.10;99.90;;;;;;5029692;28;20186;-37
2022/10/17 04:31:46;;;;;;;6.83;4.60;;;17.00;99.90;;;;;;5029830;28;20732;-36
2022/10/17 04:34:13;;;;;;;5.30;4.90;;;17.10;99.90;;;;;;5028967;28;20526;-36
2022/10/17 04:36:39;;;;;;;7.73;4.80;;;17.00;99.90;;;;;;5029676;28;20436;-37
2022/10/17 04:39:04;;;;;;;7.40;5.07;;;17.00;99.90;;;;;;5029506;28;20429;-37
2022/10/17 04:41:30;;;;;;;6.57;5.33;;;17.00;99.90;;;;;;5029680;28;20199;-37
2022/10/17 04:43:56;;;;;;;6.97;5.10;;;17.10;99.90;;;;;;5028873;28;20284;-37
2022/10/17 04:46:22;;;;;;;5.30;4.80;;;17.10;99.90;;;;;;5027014;28;20901;-36
2022/10/17 04:48:48;;;;;;;7.30;4.70;;;17.10;99.90;;;;;;5006657;28;20721;-37
2022/10/17 04:51:15;;;;;;;6.13;4.07;;;17.00;99.90;;;;;;5029337;28;20280;-37
2022/10/17 04:53:42;;;;;;;6.20;5.03;;;17.10;99.90;;;;;;5028416;28;20240;-38
2022/10/17 04:56:21;;;;;;;6.33;4.63;;;17.10;99.90;;;;;;5024191;28;20691;-37
2022/10/17 04:58:47;;;;;;;5.57;4.77;;;17.00;99.90;;;;;;5027708;28;20425;-36
2022/10/17 05:01:14;;;;;;;5.83;5.30;;;17.10;99.90;;;;;;5029246;28;20579;-36
2022/10/17 05:03:41;;;;;;;4.53;4.17;;;17.10;99.90;;;;;;5022067;28;20816;-37
2022/10/17 05:06:09;;;;;;;7.83;5.40;;;17.00;99.90;;;;;;5027225;28;20468;-36
2022/10/17 05:08:35;;;;;;;5.20;4.70;;;17.10;99.90;;;;;;5014808;28;20899;-37
2022/10/17 05:11:01;;;;;;;6.30;4.40;;;17.10;99.90;;;;;;5028315;28;20501;-36
2022/10/17 05:13:27;;;;;;;7.93;5.87;;;17.10;99.90;;;;;;5020951;28;20421;-36
2022/10/17 05:15:52;;;;;;;6.30;5.43;;;17.10;99.90;;;;;;5022808;28;20426;-36
2022/10/17 05:18:18;;;;;;;4.67;4.20;;;17.10;99.90;;;;;;5027567;28;20186;-36
2022/10/17 05:20:44;;;;;;;5.60;5.10;;;17.10;99.90;;;;;;5038500;28;20213;-36
2022/10/17 05:23:09;;;;;;;5.07;4.67;;;17.10;99.90;;;;;;5029919;28;20272;-37
2022/10/17 05:25:35;;;;;;;9.40;5.20;;;17.10;99.90;;;;;;5032238;28;20264;-36
2022/10/17 05:28:00;;;;;;;6.10;5.00;;;17.10;99.90;;;;;;5027585;28;20214;-37
2022/10/17 05:30:26;;;;;;;5.80;5.07;;;17.10;99.90;;;;;;5027896;28;20593;-37
2022/10/17 05:32:53;;;;;;;9.83;5.17;;;17.10;99.90;;;;;;5046308;28;20736;-37
2022/10/17 05:35:20;;;;;;;5.73;5.23;;;17.00;99.90;;;;;;5034830;28;20639;-36
2022/10/17 05:37:46;;;;;;;5.17;4.67;;;17.00;99.90;;;;;;5030041;28;20757;-36
2022/10/17 05:40:11;;;;;;;4.80;4.40;;;17.10;99.90;;;;;;5026567;28;20460;-36
2022/10/17 05:42:37;;;;;;;5.70;5.10;;;17.10;99.90;;;;;;5025115;28;20425;-36
2022/10/17 05:45:03;;;;;;;8.10;5.13;;;17.00;99.90;;;;;;5020747;28;20193;-36
2022/10/17 05:47:29;;;;;;;5.53;4.33;;;17.00;99.90;;;;;;5023165;28;20213;-37
2022/10/17 05:49:55;;;;;;;5.90;4.57;;;17.00;99.90;;;;;;5029752;28;20468;-36
2022/10/17 05:52:21;;;;;;;5.57;4.93;;;17.00;99.90;;;;;;5027674;28;20194;-36
2022/10/17 05:54:46;;;;;;;6.53;4.70;;;17.00;99.90;;;;;;5031653;28;20196;-37
2022/10/17 05:57:12;;;;;;;10.40;5.13;;;17.10;99.90;;;;;;5029003;28;20201;-36
2022/10/17 05:59:37;;;;;;;5.73;5.23;;;17.10;99.90;;;;;;5028515;28;20630;-36
2022/10/17 06:02:03;;;;;;;6.00;4.93;;;17.10;99.90;;;;;;5029955;28;20186;-36
2022/10/17 06:04:29;;;;;;;31.87;7.13;;;17.10;99.90;;;;;;5027881;28;20217;-36
2022/10/17 06:06:55;;;;;;;5.50;5.00;;;17.10;99.90;;;;;;5025982;28;20686;-36
2022/10/17 06:09:21;;;;;;;5.90;5.27;;;17.10;99.90;;;;;;5029616;28;20707;-36
2022/10/17 06:11:47;;;;;;;10.90;6.37;;;17.20;99.90;;;;;;5028848;28;20998;-36
2022/10/17 06:14:13;;;;;;;10.37;5.00;;;17.20;99.90;;;;;;5026797;28;20441;-36
2022/10/17 06:16:38;;;;;;;7.03;5.60;;;17.20;99.90;;;;;;5028279;28;20281;-37
2022/10/17 06:19:04;;;;;;;4.97;4.57;;;17.10;99.90;;;;;;5030638;28;20244;-36
2022/10/17 06:21:33;;;;;;;6.67;5.13;;;17.10;99.90;;;;;;5046250;28;20190;-36
2022/10/17 06:23:59;;;;;;;8.37;4.60;;;17.10;99.90;;;;;;5041524;28;20191;-36
2022/10/17 06:26:24;;;;;;;5.47;4.57;;;17.20;99.90;;;;;;5027298;28;20457;-36
2022/10/17 06:28:50;;;;;;;5.97;4.70;;;17.10;99.90;;;;;;5025585;28;20266;-36
2022/10/17 06:31:17;;;;;;;8.50;5.50;;;17.10;99.90;;;;;;5026289;28;20193;-36
2022/10/17 06:33:43;;;;;;;6.03;5.27;;;17.10;99.90;;;;;;5023244;28;20248;-36
2022/10/17 06:36:11;;;;;;;5.73;5.17;;;17.10;99.90;;;;;;5019247;28;20779;-36
2022/10/17 06:38:36;;;;;;;8.47;5.13;;;17.20;99.90;;;;;;5019731;28;20265;-36
2022/10/17 06:41:08;;;;;;;4.90;4.50;;;17.30;99.90;;;;;;5032800;28;20508;-37
2022/10/17 06:43:37;;;;;;;7.43;4.97;;;17.30;99.90;;;;;;5024001;28;20479;-36
2022/10/17 06:46:03;;;;;;;10.40;6.23;;;17.30;99.90;;;;;;5027358;28;20422;-36
2022/10/17 06:48:29;;;;;;;6.63;5.27;;;17.30;99.90;;;;;;5029941;28;20444;-36
2022/10/17 06:51:03;;;;;;;4.87;4.30;;;17.40;99.90;;;;;;5029869;28;20430;-36
2022/10/17 06:53:31;;;;;;;5.63;4.20;;;17.40;99.90;;;;;;5028613;28;20421;-36
2022/10/17 06:56:01;;;;;;;5.40;4.90;;;17.40;99.90;;;;;;5031339;28;20457;-37
2022/10/17 06:58:28;;;;;;;5.50;5.00;;;17.50;99.90;;;;;;5032749;28;20446;-37
2022/10/17 07:01:01;;;;;;;5.23;4.70;;;17.50;99.90;;;;;;5032575;28;20768;-37
2022/10/17 07:03:27;;;;;;;5.50;4.87;;;17.50;99.90;;;;;;5028868;28;20455;-37
2022/10/17 07:05:54;;;;;;;5.87;4.80;;;17.50;99.90;;;;;;5031707;28;20451;-37
2022/10/17 07:08:20;;;;;;;6.70;5.30;;;17.50;99.90;;;;;;5030599;28;20490;-36
2022/10/17 07:10:46;;;;;;;7.90;5.10;;;17.60;99.90;;;;;;5032306;28;20429;-36
2022/10/17 07:13:11;;;;;;;5.83;5.23;;;17.60;99.90;;;;;;5030920;28;20433;-37
2022/10/17 07:15:37;;;;;;;8.13;4.73;;;17.60;99.90;;;;;;5032462;28;20190;-36
2022/10/17 07:18:04;;;;;;;5.10;4.50;;;17.70;99.90;;;;;;5032787;28;20194;-37
2022/10/17 07:20:30;;;;;;;7.67;4.90;;;17.70;99.90;;;;;;5032594;28;20575;-36
2022/10/17 07:22:55;;;;;;;5.80;5.17;;;17.70;99.90;;;;;;5030977;28;20440;-36
2022/10/17 07:25:21;;;;;;;7.40;4.63;;;17.70;99.90;;;;;;5027451;28;20202;-36
2022/10/17 07:27:50;;;;;;;4.70;4.30;;;17.80;99.90;;;;;;5027377;28;20693;-36
2022/10/17 07:30:17;;;;;;;7.43;4.87;;;17.80;99.90;;;;;;5031953;28;20190;-36
2022/10/17 07:32:43;;;;;;;5.23;4.73;;;17.80;99.90;;;;;;5031008;28;20449;-36
2022/10/17 07:35:10;;;;;;;6.17;4.50;;;17.80;99.90;;;;;;5030744;28;20514;-36
2022/10/17 07:37:37;;;;;;;6.93;4.80;;;17.90;99.90;;;;;;5029307;28;20288;-37
2022/10/17 07:40:05;;;;;;;9.80;4.63;;;18.00;99.90;;;;;;5030477;28;20575;-36
2022/10/17 07:42:31;;;;;;;8.50;4.63;;;18.10;99.90;;;;;;5030058;28;20434;-36
2022/10/17 07:44:57;;;;;;;5.37;4.50;;;18.20;99.90;;;;;;5029046;28;20456;-37
2022/10/17 07:47:23;;;;;;;5.70;4.50;;;18.10;99.90;;;;;;5030520;28;20536;-37
2022/10/17 07:49:48;;;;;;;6.10;4.83;;;18.20;99.90;;;;;;5031270;28;20186;-37
2022/10/17 07:52:15;;;;;;;5.83;4.80;;;18.20;99.90;;;;;;5030569;28;20205;-36
2022/10/17 07:54:41;;;;;;;7.13;5.30;;;18.20;99.90;;;;;;5029143;28;20548;-37
2022/10/17 07:57:07;;;;;;;7.70;4.90;;;18.20;99.90;;;;;;5030659;28;20452;-37
2022/10/17 07:59:34;;;;;;;4.93;4.27;;;18.20;99.90;;;;;;5029196;28;20448;-37
2022/10/17 08:02:00;;;;;;;6.90;4.67;;;18.20;99.90;;;;;;5030392;28;20432;-37
2022/10/17 08:04:26;;;;;;;4.93;3.90;;;18.20;99.90;;;;;;5029092;28;20445;-37
2022/10/17 08:06:52;;;;;;;5.03;4.57;;;18.10;99.90;;;;;;5028827;28;20225;-36
2022/10/17 08:09:18;;;;;;;6.50;5.80;;;18.20;99.90;;;;;;5030227;28;20429;-37
2022/10/17 08:11:44;;;;;;;6.27;4.30;;;18.20;99.90;;;;;;5030059;28;20487;-36
2022/10/17 08:14:11;;;;;;;5.00;4.17;;;18.20;99.90;;;;;;5029504;28;20847;-37
2022/10/17 08:16:37;;;;;;;5.13;4.63;;;18.30;99.90;;;;;;5020081;28;20912;-36
2022/10/17 08:19:02;;;;;;;4.33;3.93;;;18.40;99.90;;;;;;5027396;28;20528;-37
2022/10/17 08:21:28;;;;;;;5.57;5.00;;;18.50;99.90;;;;;;5028396;28;20269;-36
2022/10/17 08:23:54;;;;;;;7.33;4.30;;;18.60;99.90;;;;;;5029433;28;20241;-37
2022/10/17 08:26:20;;;;;;;5.13;4.30;;;18.70;99.90;;;;;;5029908;28;20890;-36
2022/10/17 08:28:46;;;;;;;5.00;4.50;;;18.80;99.90;;;;;;5030098;28;20194;-37
2022/10/17 08:31:17;;;;;;;6.90;5.20;;;19.00;99.90;;;;;;5029832;28;20265;-37
2022/10/17 08:33:44;;;;;;;7.50;4.37;;;19.10;99.90;;;;;;5029113;28;20855;-37
2022/10/17 08:36:12;;;;;;;6.13;4.67;;;19.20;99.90;;;;;;5029490;28;20979;-37
2022/10/17 08:38:38;;;;;;;6.70;4.50;;;19.40;99.90;;;;;;5028883;28;20429;-36
2022/10/17 08:41:13;;;;;;;5.33;4.83;;;19.50;99.90;;;;;;5029648;28;20797;-36
2022/10/17 08:43:45;;;;;;;5.03;3.87;;;19.70;99.90;;;;;;5029089;28;20420;-37
2022/10/17 08:46:11;;;;;;;8.53;4.30;;;19.70;99.90;;;;;;5029750;28;20453;-37
2022/10/17 08:48:42;;;;;;;6.90;4.10;;;19.80;99.90;;;;;;5029355;28;20409;-37
2022/10/17 08:51:19;;;;;;;5.97;3.87;;;20.00;99.90;;;;;;5029528;28;21003;-37
2022/10/17 08:53:57;;;;;;;5.40;4.17;;;20.20;99.90;;;;;;5028676;28;20934;-37
2022/10/17 08:56:39;;;;;;;7.90;4.27;;;20.30;99.90;;;;;;5028728;28;20421;-36
2022/10/17 08:59:11;;;;;;;6.03;4.67;;;20.20;99.90;;;;;;5029073;28;20513;-37
2022/10/17 09:01:56;;;;;;;6.83;4.33;;;20.30;99.90;;;;;;5028093;28;20418;-37
2022/10/17 09:04:37;;;;;;;5.33;4.20;;;20.40;99.90;;;;;;5027169;28;20551;-37
2022/10/17 09:07:32;;;;;;;8.70;4.67;;;20.40;99.90;;;;;;5029031;28;20457;-37
2022/10/17 09:10:07;;;;;;;6.47;4.40;;;20.20;99.90;;;;;;5029013;28;20421;-37
2022/10/17 09:12:58;;;;;;;5.23;4.60;;;20.10;99.90;;;;;;5029249;28;20492;-37
2022/10/17 09:15:41;;;;;;;4.93;4.37;;;20.10;99.90;;;;;;5028152;28;20591;-38
2022/10/17 09:18:10;;;;;;;4.30;3.90;;;20.10;99.90;;;;;;5029285;28;20437;-37
2022/10/17 09:20:45;;;;;;;4.93;4.07;;;20.10;99.90;;;;;;5029088;28;20421;-37
2022/10/17 09:23:20;;;;;;;5.60;4.30;;;20.10;99.90;;;;;;5028581;28;20511;-37
2022/10/17 09:25:58;;;;;;;8.30;4.10;;;20.10;99.90;;;;;;5028851;28;20425;-36
2022/10/17 09:28:34;;;;;;;8.20;4.20;;;20.30;99.90;;;;;;5029181;28;20487;-37
2022/10/17 09:31:03;;;;;;;4.87;4.03;;;20.30;99.90;;;;;;5028660;28;20776;-38
2022/10/17 09:33:40;;;;;;;6.37;4.13;;;20.30;99.90;;;;;;5028401;28;20424;-36
2022/10/17 09:36:28;;;;;;;5.47;4.07;;;20.30;99.90;;;;;;5026764;28;20432;-36
2022/10/17 09:38:57;;;;;;;7.67;4.00;;;20.30;99.90;;;;;;5029194;28;20861;-37
2022/10/17 09:41:32;;;;;;;4.37;4.00;;;20.30;99.90;;;;;;5028631;28;20413;-37
2022/10/17 09:44:12;;;;;;;4.33;3.90;;;20.30;99.90;;;;;;5027839;28;20935;-38
2022/10/17 09:46:38;;;;;;;4.40;3.27;;;20.30;99.90;;;;;;5028445;28;20457;-37
2022/10/17 09:49:32;;;;;;;5.37;4.20;;;20.30;99.90;;;;;;5028427;28;20789;-38
2022/10/17 09:52:00;;;;;;;5.33;4.30;;;20.30;99.90;;;;;;5028465;28;20332;-38
2022/10/17 09:54:35;;;;;;;5.63;4.20;;;20.30;99.90;;;;;;5027468;28;20869;-36
2022/10/17 09:57:07;;;;;;;4.30;3.83;;;20.30;99.90;;;;;;5028815;28;20416;-37
2022/10/17 09:59:36;;;;;;;5.87;4.10;;;20.30;99.90;;;;;;5028394;28;20421;-37
2022/10/17 10:02:12;;;;;;;5.80;4.03;;;20.30;99.90;;;;;;5028453;28;20507;-37
2022/10/17 10:05:03;;;;;;;8.17;3.80;;;20.20;99.90;;;;;;5027661;28;20898;-37
2022/10/17 10:07:35;;;;;;;6.33;4.10;;;20.20;99.90;;;;;;5020073;28;20540;-38
2022/10/17 10:10:02;;;;;;;9.23;4.57;;;20.20;99.90;;;;;;5026805;28;20483;-36
2022/10/17 10:12:35;;;;;;;4.37;3.97;;;20.20;99.90;;;;;;5028194;28;20422;-37
2022/10/17 10:15:01;;;;;;;4.07;3.60;;;20.20;99.90;;;;;;5027853;28;20421;-37
2022/10/17 10:17:33;;;;;;;7.03;5.70;;;20.20;99.90;;;;;;5027091;28;20420;-37
2022/10/17 10:20:00;;;;;;;5.67;4.83;;;20.20;99.90;;;;;;5027801;28;20194;-37
2022/10/17 10:22:26;;;;;;;4.40;3.60;;;20.20;99.90;;;;;;5027815;28;20969;-37
2022/10/17 10:25:12;;;;;;;5.80;4.03;;;20.20;99.90;;;;;;5027503;28;20472;-37
2022/10/17 10:27:39;;;;;;;9.00;4.37;;;20.10;99.90;;;;;;5030353;28;20676;-37
2022/10/17 10:30:15;;;;;;;5.80;4.40;;;20.10;99.90;;;;;;5031954;28;20539;-37
2022/10/17 10:32:46;;;;;;;4.63;4.00;;;20.10;99.90;;;;;;5031336;28;20496;-36
2022/10/17 10:35:27;;;;;;;5.57;4.13;;;20.10;99.90;;;;;;5032024;28;20482;-38
2022/10/17 10:37:56;;;;;;;8.60;4.70;;;20.10;99.90;;;;;;5032119;28;20429;-37
2022/10/17 10:40:27;;;;;;;6.10;3.87;;;20.10;99.90;;;;;;5032046;28;20508;-38
2022/10/17 10:42:57;;;;;;;11.60;4.07;;;20.10;99.90;;;;;;5031006;28;20479;-37
2022/10/17 10:45:40;;;;;;;7.13;3.60;;;20.00;99.90;;;;;;5032210;28;20421;-37
2022/10/17 10:48:36;;;;;;;4.87;3.40;;;20.00;99.90;;;;;;5031814;28;20461;-37
2022/10/17 10:51:24;;;;;;;6.10;3.80;;;20.00;99.90;;;;;;5032257;28;20413;-37
2022/10/17 10:54:00;;;;;;;6.30;4.97;;;20.00;99.90;;;;;;5031019;28;21021;-37
2022/10/17 10:56:39;;;;;;;4.10;3.70;;;20.00;99.90;;;;;;5030982;28;20421;-37
2022/10/17 10:59:07;;;;;;;6.07;4.20;;;20.00;99.90;;;;;;5031313;28;20424;-37
2022/10/17 11:01:55;;;;;;;4.77;3.87;;;20.10;99.90;;;;;;5031683;28;20417;-37
2022/10/17 11:04:46;;;;;;;4.77;4.10;;;20.10;99.90;;;;;;5030798;28;20425;-37
2022/10/17 11:07:38;;;;;;;4.87;4.47;;;20.10;99.90;;;;;;5019023;28;20813;-37
2022/10/17 11:10:27;;;;;;;7.57;3.87;;;20.10;99.90;;;;;;5030853;28;20856;-36
2022/10/17 11:13:21;;;;;;;4.40;4.00;;;20.10;99.90;;;;;;5030675;28;20428;-36
2022/10/17 11:16:13;;;;;;;5.70;4.37;;;20.00;99.90;;;;;;5031296;28;20420;-37
2022/10/17 11:18:45;;;;;;;5.13;4.37;;;20.00;99.90;;;;;;5031218;28;20424;-37
2022/10/17 11:21:20;;;;;;;6.60;4.10;;;20.00;99.90;;;;;;5030999;28;20735;-37
2022/10/17 11:24:19;;;;;;;4.73;3.87;;;20.00;99.90;;;;;;5030595;28;20432;-37
2022/10/17 11:26:52;;;;;;;6.13;4.83;;;20.00;99.90;;;;;;5030883;28;20455;-37
2022/10/17 11:29:18;;;;;;;7.80;4.33;;;19.90;99.90;;;;;;5031203;28;20785;-37
2022/10/17 11:31:51;;;;;;;8.13;4.00;;;20.00;99.90;;;;;;5031019;28;20421;-38
2022/10/17 11:34:24;;;;;;;4.77;3.90;;;20.00;99.90;;;;;;5033467;28;20474;-37
2022/10/17 11:36:55;;;;;;;6.50;4.43;;;20.00;99.90;;;;;;5050843;28;20862;-37
2022/10/17 11:39:39;;;;;;;5.30;3.87;;;20.10;99.90;;;;;;5049658;28;20428;-37
2022/10/17 11:42:18;;;;;;;4.60;4.10;;;20.10;99.90;;;;;;5050594;28;20420;-37
2022/10/17 11:44:44;;;;;;;7.60;4.60;;;20.10;99.90;;;;;;5050491;28;20416;-37
2022/10/17 11:47:12;;;;;;;3.97;3.60;;;20.10;99.90;;;;;;5050573;28;21021;-37
2022/10/17 11:49:46;;;;;;;5.63;3.83;;;20.10;99.90;;;;;;5050807;28;20264;-37
2022/10/17 11:52:45;;;;;;;6.73;4.20;;;20.20;99.90;;;;;;5050276;28;20428;-37
2022/10/17 11:55:19;;;;;;;7.90;4.63;;;20.20;99.90;;;;;;5049877;28;20408;-37
2022/10/17 11:58:00;;;;;;;4.70;4.30;;;20.20;99.90;;;;;;5050681;28;20945;-37
2022/10/17 12:00:39;;;;;;;9.23;3.93;;;20.20;99.90;;;;;;5050401;28;20450;-37
2022/10/17 12:03:22;;;;;;;8.10;4.13;;;20.20;99.90;;;;;;5049948;28;20805;-38
2022/10/17 12:06:14;;;;;;;5.30;3.97;;;20.20;99.90;;;;;;5031968;28;20445;-36
2022/10/17 12:08:57;;;;;;;4.60;4.20;;;20.20;99.90;;;;;;5023385;28;20455;-37
2022/10/17 12:11:56;;;;;;;4.40;4.00;;;20.20;99.90;;;;;;5030398;28;20417;-37
2022/10/17 12:14:41;;;;;;;4.80;4.40;;;20.10;99.90;;;;;;5029094;28;20444;-37
2022/10/17 12:17:26;;;;;;;7.50;4.57;;;20.10;99.90;;;;;;5028978;28;20428;-37
2022/10/17 12:19:52;;;;;;;6.10;4.00;;;20.20;99.90;;;;;;5028670;28;20790;-37
2022/10/17 12:22:24;;;;;;;6.20;4.03;;;20.20;99.90;;;;;;5030055;28;20417;-37
2022/10/17 12:25:03;;;;;;;9.10;4.23;;;20.20;99.90;;;;;;5061790;23;20496;-81
2022/10/17 12:27:41;;;;;;;6.57;3.97;;;20.20;99.90;;;;;;5009944;28;20460;-80
2022/10/17 12:30:27;;;;;;;5.60;4.33;;;20.20;99.90;;;;;;5043463;28;20750;-81
2022/10/17 12:33:00;;;;;;;11.50;5.60;;;20.10;99.90;;;;;;5020789;28;20478;-82
2022/10/17 12:35:27;;;;;;;4.93;3.90;;;20.10;99.90;;;;;;5051925;28;20440;-82
2022/10/17 12:37:53;;;;;;;4.70;4.10;;;20.10;99.90;;;;;;5036687;28;20447;-83
2022/10/17 12:40:33;;;;;;;7.80;4.93;;;20.10;99.90;;;;;;5054217;28;20412;-83
2022/10/17 12:43:01;;;;;;;4.57;4.10;;;20.10;99.90;;;;;;5023731;28;20181;-82
2022/10/17 12:45:48;;;;;;;4.80;4.40;;;20.10;99.90;;;;;;5036490;28;20914;-81
2022/10/17 12:48:32;;;;;;;4.60;4.20;;;20.10;99.90;;;;;;5019677;28;21307;-81
2022/10/17 12:51:01;;;;;;;4.23;3.83;;;20.10;99.90;;;;;;5054234;28;20412;-82
2022/10/17 12:53:43;;;;;;;7.40;4.70;;;20.10;99.90;;;;;;5035703;28;20420;-81
2022/10/17 12:56:08;;;;;;;4.53;4.03;;;20.10;99.90;;;;;;5024549;28;20415;-82
2022/10/17 12:58:35;;;;;;;6.20;4.30;;;20.00;99.90;;;;;;5054081;28;20743;-83
2022/10/17 13:01:02;;;;;;;4.37;4.00;;;20.00;99.90;;;;;;5037053;28;20185;-82
2022/10/17 13:03:32;;;;;;;5.20;4.70;;;19.90;99.90;;;;;;5019528;28;20450;-81
2022/10/17 13:06:01;;;;;;;5.73;4.70;;;19.90;99.90;;;;;;5043657;28;20409;-82
2022/10/17 13:08:41;;;;;;;4.90;4.40;;;19.90;99.90;;;;;;5013854;28;20930;-81